createdAt,value
2022-10-23T07:34:37.903Z,43.3
2022-10-23T07:40:01.287Z,44.1
2022-10-23T07:45:27.445Z,45.3
2022-10-23T07:51:05.099Z,46.5
2022-10-23T07:56:49.005Z,46.1
2022-10-23T08:02:14.355Z,47.8
2022-10-23T08:07:36.492Z,49.2
2022-10-23T08:13:49.704Z,49.8
2022-10-23T08:19:30.375Z,49.7
2022-10-23T08:25:07.382Z,49.6
2022-10-23T08:30:32.502Z,51.3
2022-10-23T08:36:09.571Z,51.9
2022-10-23T08:41:50.786Z,52.8
2022-10-23T08:47:28.846Z,53.7
2022-10-23T09:21:34.218Z,57.4
2022-10-23T09:27:12.594Z,57.8
2022-10-23T09:32:53.708Z,58.8
2022-10-23T09:38:16.186Z,59.1
2022-10-23T09:43:58.567Z,59.3
2022-10-23T09:49:39.724Z,59.6
2022-10-23T09:55:02.042Z,59.9
2022-10-23T10:00:40.962Z,60.2
2022-10-23T10:06:19.324Z,60.7
2022-10-23T10:11:56.759Z,61
2022-10-23T10:17:35.102Z,61.3
2022-10-23T10:23:15.717Z,61.8
2022-10-23T10:28:59.875Z,61.8
2022-10-23T10:34:42.608Z,61.7
2022-10-23T10:40:23.399Z,61.5
2022-10-23T10:45:45.685Z,60.9
2022-10-23T10:51:24.516Z,61.4
2022-10-23T10:57:04.235Z,61.8
2022-10-23T11:02:45.792Z,61.7
2022-10-23T11:08:28.674Z,61.9
2022-10-23T11:14:25.081Z,60.6
2022-10-23T11:20:04.786Z,61.3
2022-10-23T11:25:46.045Z,61.8
2022-10-23T11:31:30.169Z,60.3
2022-10-23T11:37:10.595Z,61.5
2022-10-23T11:42:38.547Z,61.9
2022-10-23T11:48:00.750Z,60.3
2022-10-23T11:53:47.974Z,58.8
2022-10-23T11:59:13.351Z,59.1
2022-10-23T12:04:36.217Z,58.9
2022-10-23T12:09:58.204Z,57.6
2022-10-23T12:15:41.947Z,59.6
2022-10-23T12:21:07.026Z,61.6
2022-10-23T12:26:44.035Z,61.5
2022-10-23T12:32:23.361Z,63.8
2022-10-23T12:38:00.262Z,65.5
2022-10-23T12:43:40.330Z,62.1
2022-10-23T12:49:24.799Z,53.9
2022-10-23T12:55:01.560Z,57
2022-10-23T13:00:39.928Z,59.3
2022-10-23T13:06:24.344Z,60.6
2022-10-23T13:11:46.499Z,60.4
2022-10-23T13:17:08.604Z,59
2022-10-23T13:27:37.776Z,57
